Airfield :
LOGIN :

Register | Disclaimer

   EN    FR    IT 

 










Legend :    VFR   Marginal VFR   IFR   Intensive IFR   Very Intensive IFR
Visi :
Ceiling :
>= 8 km
>= 3000ft
5 to 8 km
1000 to 3000 ft
1500m to 5 km
500 to 1000 ft
800 to 1500m
200 to 500 ft
< 800m
< 200 ft
Symbols :   Thunderstorms  Fog  Heavy snow  Heavy precipitations  Wind > 20 kt
SIGMETs :     Misc.  Thunderstorms  Icing  Turbulence  Mountain Waves  Volcanic Ashes







- Airport Elevation : 194 ft
- IATA code : LME
- Download approach charts


LFRM - Le Mans

CURRENT METAR :
  • 181530Z AUTO 25011KT 210V280 9999 -RA BKN019/// BKN024/// BKN030/// ///TCU 13/11 Q1008 BECMG SCT012 BKN020

EXPIRED METARs :
  • 181500Z AUTO 25012KT 210V290 9999 BKN020 BKN033 OVC041 14/10 Q1008 TEMPO 25015G27KT 4000 RA SCT010TCU BKN013
  • 181430Z AUTO 24011KT 200V280 9999 BKN018 BKN023 OVC029 14/10 Q1008 TEMPO 25015G27KT 4000 RA SCT010TCU BKN013
  • 181400Z AUTO 24010G21KT 210V290 9999 BKN020 OVC027 13/11 Q1009 TEMPO 3000 -DZRA BKN004
  • 181330Z AUTO 24011KT 190V280 9999 OVC016 13/11 Q1009 TEMPO 3000 -DZRA BKN004 BECMG 27015G25KT
  • 181300Z AUTO 25009KT 220V280 9999 OVC014 13/11 Q1009 TEMPO 3000 -DZRA BKN004 BECMG 25018G30KT

TAF TAF LFRM
Valid from the 18 at 15:00 until the 19 at 00:00 UTC


181400Z 1815/1824 25012KT 9999 SCT012 BKN020
TEMPO 1815/1816 25015G27KT 4000 RA SCT010TCU BKN013
No reported NOTAMs for that airfield.



MET'MAP, your aeronautical weather chart ! - Copyright ORBIFLY December 2007 - Disclaimer

ORBIFLY MET'MAP TEAM :

Programming & Development : Alexandra Zaïnal
Concept & Development : Baudouin d'Aumeries
Co-Development & Prog : Marc-Olivier Méhu
Technical & hardware support : Manuel Goepfert

Contact : metmap@orbifly.com




SOURCES & CREDITS :

   NOAA